createdAt,value
2017-02-17T16:45:04.126Z,23.1
2017-02-17T16:46:12.215Z,23.1
2017-02-17T16:47:20.300Z,23.1
2017-02-17T16:48:28.396Z,23.1
2017-02-17T16:49:36.520Z,23.1
2017-02-17T16:50:44.576Z,23.2
2017-02-17T16:51:52.675Z,23.1
2017-02-17T16:53:00.769Z,23.1
2017-02-17T16:54:08.859Z,23.2
2017-02-17T16:55:16.947Z,23.2
2017-02-17T16:56:25.039Z,23.1
2017-02-17T16:57:33.121Z,23.2
2017-02-17T16:58:41.216Z,23.2
2017-02-17T16:59:49.309Z,23.2
2017-02-17T17:00:57.407Z,23.3
2017-02-17T17:02:05.491Z,23.3
2017-02-17T17:03:13.571Z,23.2
2017-02-17T17:04:21.674Z,23.2
2017-02-17T17:05:29.765Z,23.2
2017-02-17T17:06:37.848Z,23.3
2017-02-17T17:07:45.941Z,23.3
2017-02-17T17:08:54.045Z,23.3
2017-02-17T17:10:02.130Z,23.3
2017-02-17T17:11:10.218Z,23.3
2017-02-17T17:12:18.314Z,23.3
2017-02-17T17:13:26.401Z,23.3
2017-02-17T17:14:34.492Z,23.3
2017-02-17T17:15:42.581Z,23.3
2017-02-17T17:16:50.668Z,23.3
2017-02-17T17:17:58.752Z,23.3
2017-02-17T17:19:06.840Z,23.3
2017-02-17T17:20:14.935Z,23.3
2017-02-17T17:21:23.023Z,23.3
2017-02-17T17:22:31.111Z,23.4
2017-02-17T17:23:39.201Z,23.3
2017-02-17T17:24:47.294Z,23.4
2017-02-17T17:25:55.387Z,23.5
2017-02-17T17:27:03.471Z,23.4
2017-02-17T17:28:11.575Z,23.4
2017-02-17T17:29:19.653Z,23.4
2017-02-17T17:30:27.825Z,23.4
2017-02-17T17:31:35.830Z,23.4
2017-02-17T17:32:43.924Z,23.4
2017-02-17T17:33:52.002Z,23.4
2017-02-17T17:35:00.119Z,23.4
2017-02-17T17:36:08.190Z,23.5
2017-02-17T17:37:16.278Z,23.4
2017-02-17T17:38:24.363Z,23.4
2017-02-17T17:39:32.455Z,23.3
2017-02-17T17:40:40.543Z,23.5
2017-02-17T17:41:48.626Z,23.4
2017-02-17T17:42:56.719Z,23.4
2017-02-17T17:44:04.813Z,23.4
2017-02-17T17:45:12.900Z,23.5
2017-02-17T17:46:20.991Z,23.5
2017-02-17T17:47:29.088Z,23.5
2017-02-17T17:48:37.173Z,23.4
2017-02-17T17:49:45.272Z,23.5
2017-02-17T17:50:53.359Z,23.5
2017-02-17T17:52:01.443Z,23.5
2017-02-17T17:53:09.531Z,23.5
2017-02-17T17:54:17.617Z,23.5
2017-02-17T17:55:25.712Z,23.4
2017-02-17T17:56:33.796Z,23.6
2017-02-17T17:57:41.886Z,23.6
2017-02-17T17:58:49.987Z,23.5
2017-02-17T17:59:58.074Z,23.5
2017-02-17T18:01:06.161Z,23.5
2017-02-17T18:02:14.244Z,23.6
2017-02-17T18:03:22.339Z,23.6
2017-02-17T18:04:30.432Z,23.6
2017-02-17T18:05:38.514Z,23.6
2017-02-17T18:06:46.607Z,23.6
2017-02-17T18:07:54.700Z,23.6
2017-02-17T18:09:02.781Z,23.7
2017-02-17T18:10:10.876Z,23.6
2017-02-17T18:11:18.991Z,23.6
2017-02-17T18:12:27.057Z,23.6
2017-02-17T18:13:35.246Z,23.6
2017-02-17T18:14:43.231Z,23.7
2017-02-17T18:15:51.322Z,23.6
2017-02-17T18:16:59.417Z,23.6
2017-02-17T18:18:07.499Z,23.7
2017-02-17T18:19:15.591Z,23.6
2017-02-17T18:20:23.679Z,23.8
2017-02-17T18:21:31.767Z,23.6
2017-02-17T18:22:39.858Z,23.7
2017-02-17T18:23:47.952Z,23.7
2017-02-17T18:24:56.041Z,23.7
2017-02-17T18:26:04.189Z,23.8
2017-02-17T18:27:12.223Z,23.8
2017-02-17T18:28:20.320Z,23.8
2017-02-17T18:29:28.401Z,23.7
2017-02-17T18:30:36.489Z,23.8
2017-02-17T18:31:44.581Z,23.8
2017-02-17T18:32:52.671Z,23.8
2017-02-17T18:34:00.763Z,23.8
2017-02-17T18:35:08.850Z,23.8
2017-02-17T18:36:16.941Z,23.8
2017-02-17T18:37:25.025Z,23.8
2017-02-17T18:38:33.118Z,23.8
2017-02-17T18:39:41.208Z,23.7
2017-02-17T18:40:49.292Z,23.7
2017-02-17T18:41:57.382Z,23.8
2017-02-17T18:43:05.471Z,23.8
2017-02-17T18:44:13.559Z,23.8
2017-02-17T18:45:21.648Z,23.8
2017-02-17T18:46:29.744Z,23.8
2017-02-17T18:47:37.842Z,23.8
2017-02-17T18:48:45.928Z,23.8
2017-02-17T18:49:54.020Z,23.8
2017-02-17T18:51:02.118Z,23.8
2017-02-17T18:52:10.203Z,23.8
2017-02-17T18:53:18.288Z,23.9
2017-02-17T18:54:26.381Z,23.8
2017-02-17T18:55:34.476Z,23.8
2017-02-17T18:56:42.560Z,23.8
2017-02-17T18:57:50.655Z,23.8
2017-02-17T18:59:00.097Z,23.8
2017-02-17T19:00:06.832Z,23.8
2017-02-17T19:01:14.919Z,23.8
2017-02-17T19:02:23.017Z,23.8
2017-02-17T19:03:31.103Z,23.8
2017-02-17T19:04:39.193Z,23.8
2017-02-17T19:05:47.279Z,23.8
2017-02-17T19:06:55.368Z,23.8
2017-02-17T19:08:03.450Z,23.8
2017-02-17T19:09:11.543Z,23.8
2017-02-17T19:10:19.639Z,23.8
2017-02-17T19:11:27.732Z,23.8
2017-02-17T19:12:35.817Z,23.8
2017-02-17T19:13:43.909Z,23.8
2017-02-17T19:14:52.007Z,23.8
2017-02-17T19:16:00.094Z,23.8
2017-02-17T19:17:08.183Z,23.8
2017-02-17T19:18:16.280Z,23.8
2017-02-17T19:19:24.371Z,23.8
2017-02-17T19:20:32.453Z,23.8
2017-02-17T19:21:40.549Z,23.8
2017-02-17T19:22:48.633Z,23.8
2017-02-17T19:23:56.724Z,23.8
2017-02-17T19:25:04.809Z,23.7
2017-02-17T19:26:12.900Z,23.7
2017-02-17T19:27:20.990Z,23.7
2017-02-17T19:28:29.130Z,23.8
2017-02-17T19:29:37.174Z,23.8
2017-02-17T19:30:45.261Z,23.8
2017-02-17T19:31:53.344Z,23.8
2017-02-17T19:33:01.431Z,23.8
2017-02-17T19:34:09.598Z,23.8
2017-02-17T19:35:17.612Z,23.9
2017-02-17T19:36:25.696Z,23.7
2017-02-17T19:37:33.785Z,23.8
2017-02-17T19:38:41.880Z,23.8
2017-02-17T19:39:49.972Z,23.8
2017-02-17T19:40:58.052Z,23.8
2017-02-17T19:42:06.148Z,23.8
2017-02-17T19:43:14.236Z,23.8
2017-02-17T19:44:22.323Z,23.9
2017-02-17T19:45:30.421Z,23.8
2017-02-17T19:46:38.505Z,23.8
2017-02-17T19:47:46.587Z,23.9
2017-02-17T19:48:54.676Z,23.9
2017-02-17T19:50:02.768Z,23.9
2017-02-17T19:51:10.860Z,23.8
2017-02-17T19:52:18.951Z,23.9
2017-02-17T19:53:27.126Z,23.9
2017-02-17T19:54:35.123Z,23.9
2017-02-17T19:55:43.214Z,23.8
2017-02-17T19:56:51.310Z,23.8
2017-02-17T19:57:59.401Z,23.9
2017-02-17T19:59:07.495Z,23.9
2017-02-17T20:00:15.592Z,23.8
2017-02-17T20:01:23.671Z,23.8
2017-02-17T20:02:31.763Z,23.9
2017-02-17T20:03:39.940Z,23.9
2017-02-17T20:04:47.942Z,23.9
2017-02-17T20:05:56.032Z,23.9
2017-02-17T20:07:04.121Z,23.8
2017-02-17T20:08:12.206Z,23.9
2017-02-17T20:09:20.296Z,23.8
2017-02-17T20:10:28.383Z,23.9
2017-02-17T20:11:36.467Z,23.9
2017-02-17T20:12:44.565Z,23.9
2017-02-17T20:13:52.650Z,23.8
2017-02-17T20:15:00.754Z,23.9
2017-02-17T20:16:08.831Z,23.9
2017-02-17T20:17:16.927Z,23.9
2017-02-17T20:18:25.011Z,23.8
2017-02-17T20:19:33.121Z,23.9
2017-02-17T20:20:41.275Z,23.9
2017-02-17T20:21:49.282Z,24.0
2017-02-17T20:22:57.370Z,23.9
2017-02-17T20:24:05.457Z,23.9
2017-02-17T20:25:13.554Z,23.8
2017-02-17T20:26:21.647Z,23.9
2017-02-17T20:27:29.735Z,23.9
2017-02-17T20:28:37.817Z,23.9
2017-02-17T20:29:45.909Z,23.8
2017-02-17T20:30:54.004Z,23.9
2017-02-17T20:32:02.083Z,23.9
2017-02-17T20:33:10.176Z,23.9
2017-02-17T20:34:18.804Z,23.9
2017-02-17T20:35:26.355Z,23.8
2017-02-17T20:36:34.440Z,23.9
2017-02-17T20:37:42.534Z,23.9
2017-02-17T20:38:50.615Z,23.8
2017-02-17T20:39:58.702Z,23.9
2017-02-17T20:41:06.794Z,23.8
2017-02-17T20:42:14.892Z,23.9
2017-02-17T20:43:22.975Z,23.9
2017-02-17T20:44:31.071Z,23.8
2017-02-17T20:45:39.165Z,23.9
2017-02-17T20:46:47.248Z,23.9
2017-02-17T20:47:55.339Z,23.8
2017-02-17T20:49:03.435Z,23.9
2017-02-17T20:50:11.519Z,23.9
2017-02-17T20:51:19.604Z,23.8
2017-02-17T20:52:27.708Z,23.8
2017-02-17T20:53:35.788Z,23.9
2017-02-17T20:54:43.879Z,23.9
2017-02-17T20:55:51.965Z,23.8
2017-02-17T20:57:00.063Z,23.8
2017-02-17T20:58:08.148Z,23.8
2017-02-17T20:59:16.236Z,23.9
2017-02-17T21:00:24.327Z,23.8
2017-02-17T21:01:32.464Z,23.8
2017-02-17T21:02:40.507Z,23.8
2017-02-17T21:03:48.592Z,23.9
2017-02-17T21:04:56.690Z,23.8
2017-02-17T21:06:04.783Z,23.8
2017-02-17T21:07:12.982Z,23.8
2017-02-17T21:08:20.952Z,23.8
2017-02-17T21:09:29.044Z,23.8
2017-02-17T21:10:37.131Z,23.8
2017-02-17T21:11:45.225Z,23.8
2017-02-17T21:12:53.313Z,23.8
2017-02-17T21:14:01.407Z,23.8
2017-02-17T21:15:09.490Z,23.8
2017-02-17T21:16:17.582Z,23.8
2017-02-17T21:17:25.674Z,23.8
2017-02-17T21:18:33.762Z,23.9
2017-02-17T21:19:41.859Z,23.8
2017-02-17T21:20:49.946Z,23.9
2017-02-17T21:21:58.032Z,23.8
2017-02-17T21:23:06.123Z,23.9
2017-02-17T21:24:14.211Z,23.9
2017-02-17T21:25:22.300Z,23.9
2017-02-17T21:26:30.397Z,23.9
2017-02-17T21:27:38.484Z,23.9
2017-02-17T21:28:46.580Z,23.9
2017-02-17T21:29:54.667Z,23.9
2017-02-17T21:31:02.753Z,23.9
2017-02-17T21:32:10.845Z,23.9
2017-02-17T21:33:18.941Z,24.0
2017-02-17T21:34:27.031Z,23.9
2017-02-17T21:35:35.122Z,24.0
2017-02-17T21:36:43.208Z,23.9
2017-02-17T21:37:51.291Z,24.0
2017-02-17T21:38:59.383Z,24.0
2017-02-17T21:40:07.467Z,24.0
2017-02-17T21:41:15.563Z,24.0
2017-02-17T21:42:23.649Z,24.0
2017-02-17T21:43:31.743Z,24.0
2017-02-17T21:44:39.837Z,24.0
2017-02-17T21:45:47.973Z,24.0
2017-02-17T21:46:56.559Z,24.0
2017-02-17T21:48:04.104Z,24.0
2017-02-17T21:49:12.192Z,24.1
2017-02-17T21:50:20.277Z,24.0
2017-02-17T21:51:28.373Z,24.0
2017-02-17T21:52:36.462Z,24.1
2017-02-17T21:53:44.556Z,24.1
2017-02-17T21:54:52.640Z,24.0
2017-02-17T21:56:00.730Z,24.1
2017-02-17T21:57:08.816Z,24.1
2017-02-17T21:58:16.904Z,24.1
2017-02-17T21:59:24.994Z,24.1
2017-02-17T22:00:33.084Z,24.2
2017-02-17T22:01:41.171Z,24.2
2017-02-17T22:02:49.263Z,24.1
2017-02-17T22:03:57.681Z,24.2
2017-02-17T22:05:05.436Z,24.2
2017-02-17T22:06:13.531Z,24.1
2017-02-17T22:07:21.620Z,24.2
2017-02-17T22:08:29.712Z,24.2
2017-02-17T22:09:37.800Z,24.2
2017-02-17T22:10:45.889Z,24.2
2017-02-17T22:11:53.988Z,24.2
2017-02-17T22:13:02.083Z,24.2
2017-02-17T22:14:10.164Z,24.2
2017-02-17T22:15:18.319Z,24.2
2017-02-17T22:16:26.350Z,24.2
2017-02-17T22:17:34.439Z,24.2
2017-02-17T22:18:42.521Z,24.2
2017-02-17T22:19:50.613Z,24.2
2017-02-17T22:20:58.704Z,24.2
2017-02-17T22:22:06.790Z,24.2
2017-02-17T22:23:14.884Z,24.2
2017-02-17T22:24:22.974Z,24.2
2017-02-17T22:25:31.057Z,24.2
2017-02-17T22:26:39.151Z,24.2
2017-02-17T22:27:47.242Z,24.2
2017-02-17T22:28:55.330Z,24.2
2017-02-17T22:30:03.432Z,24.3
2017-02-17T22:31:11.508Z,24.2
2017-02-17T22:32:19.618Z,24.2
2017-02-17T22:33:27.688Z,24.3
2017-02-17T22:34:35.778Z,24.2
2017-02-17T22:35:43.876Z,24.2
2017-02-17T22:36:51.959Z,24.2
2017-02-17T22:38:00.046Z,24.3
2017-02-17T22:39:08.137Z,24.2
2017-02-17T22:40:16.234Z,24.2
2017-02-17T22:41:24.327Z,24.2
2017-02-17T22:42:32.411Z,24.2
2017-02-17T22:43:40.506Z,24.2
2017-02-17T22:44:48.591Z,24.2
2017-02-17T22:45:56.678Z,24.2
2017-02-17T22:47:04.768Z,24.2
2017-02-17T22:48:12.859Z,24.2
2017-02-17T22:49:20.946Z,24.2
2017-02-17T22:50:29.038Z,24.2
2017-02-17T22:51:37.124Z,24.2
2017-02-17T22:52:45.222Z,24.2
2017-02-17T22:53:53.308Z,24.2
2017-02-17T22:55:01.406Z,24.2
2017-02-17T22:56:09.497Z,24.1
2017-02-17T22:57:17.585Z,24.2
2017-02-17T22:58:25.672Z,24.1
2017-02-17T22:59:33.766Z,24.2
2017-02-17T23:00:41.847Z,24.2
2017-02-17T23:01:49.935Z,24.1
2017-02-17T23:02:58.387Z,24.1
2017-02-17T23:04:06.109Z,24.1
2017-02-17T23:05:14.197Z,24.1
2017-02-17T23:06:22.289Z,24.1
2017-02-17T23:07:30.383Z,24.1
2017-02-17T23:08:38.471Z,24.1
2017-02-17T23:09:46.559Z,24.0
2017-02-17T23:10:54.650Z,24.1
2017-02-17T23:12:02.742Z,24.0
2017-02-17T23:13:10.832Z,24.1
2017-02-17T23:14:18.923Z,24.0
2017-02-17T23:15:27.017Z,24.1
2017-02-17T23:16:35.101Z,24.1
2017-02-17T23:17:43.187Z,24.0
2017-02-17T23:18:51.282Z,24.0
2017-02-17T23:19:59.373Z,24.1
2017-02-17T23:21:07.458Z,24.0
2017-02-17T23:22:15.550Z,24.0
2017-02-17T23:23:23.722Z,24.0
2017-02-17T23:24:31.725Z,24.1
2017-02-17T23:25:39.816Z,24.0
2017-02-17T23:26:47.907Z,24.0
2017-02-17T23:27:56.001Z,24.0
2017-02-17T23:29:04.089Z,24.0
2017-02-17T23:30:12.179Z,24.0
2017-02-17T23:31:20.265Z,23.9
2017-02-17T23:32:28.350Z,23.9
2017-02-17T23:33:36.443Z,23.9
2017-02-17T23:34:44.540Z,23.9
2017-02-17T23:35:52.624Z,23.9
2017-02-17T23:37:00.713Z,24.0
2017-02-17T23:38:08.798Z,23.9
2017-02-17T23:39:16.888Z,23.9
2017-02-17T23:40:24.977Z,23.9
2017-02-17T23:41:33.071Z,23.9
2017-02-17T23:42:41.161Z,23.9
2017-02-17T23:43:49.259Z,23.9
2017-02-17T23:44:57.347Z,23.9
2017-02-17T23:46:05.446Z,23.9
2017-02-17T23:47:13.537Z,24.0
2017-02-17T23:48:21.622Z,24.0
2017-02-17T23:49:29.718Z,24.0
2017-02-17T23:50:37.799Z,24.0
2017-02-17T23:51:45.893Z,24.0
2017-02-17T23:52:54.056Z,24.1
2017-02-17T23:54:02.069Z,24.1
2017-02-17T23:55:10.156Z,23.9
2017-02-17T23:56:18.241Z,24.0
2017-02-17T23:57:26.334Z,24.0
2017-02-17T23:58:34.425Z,24.0
2017-02-17T23:59:42.509Z,24.0
